createdAt,value
2022-09-21T00:00:51.000Z,10.60
2022-09-21T00:10:52.000Z,14.70
2022-09-21T00:20:52.000Z,19.40
2022-09-21T00:40:53.000Z,24.80
2022-09-21T00:50:54.000Z,27.50
2022-09-21T01:00:55.000Z,22.00
2022-09-21T01:10:55.000Z,25.00
2022-09-21T01:20:56.000Z,26.70
2022-09-21T01:30:57.000Z,17.20
2022-09-21T01:40:58.000Z,20.60
2022-09-21T01:50:58.000Z,43.60
2022-09-21T02:11:00.000Z,21.70
2022-09-21T02:21:00.000Z,19.30
2022-09-21T02:31:01.000Z,20.60
2022-09-21T02:41:02.000Z,27.20
2022-09-21T02:51:03.000Z,30.60
2022-09-21T03:01:03.000Z,37.70
2022-09-21T03:11:04.000Z,31.00
2022-09-21T03:21:05.000Z,25.70
2022-09-21T03:41:06.000Z,28.10
2022-09-21T03:51:07.000Z,38.50
2022-09-21T04:01:08.000Z,34.20
2022-09-21T04:11:09.000Z,44.00
2022-09-21T04:21:10.000Z,40.10
2022-09-21T04:51:29.000Z,53.20
2022-09-21T04:51:29.000Z,45.20
2022-09-21T05:01:29.000Z,49.40
2022-09-21T05:11:29.000Z,43.20
2022-09-21T05:21:29.000Z,52.00
2022-09-21T05:31:29.000Z,41.40
2022-09-21T05:41:29.000Z,69.90
2022-09-21T05:51:29.000Z,64.70
2022-09-21T06:01:29.000Z,81.10
2022-09-21T06:21:29.000Z,86.80
2022-09-21T06:31:29.000Z,68.30
2022-09-21T06:41:29.000Z,61.10
2022-09-21T06:51:29.000Z,61.20
2022-09-21T07:01:28.000Z,42.60
2022-09-21T07:11:28.000Z,46.40
2022-09-21T07:21:28.000Z,34.80
2022-09-21T07:31:28.000Z,53.10
2022-09-21T07:51:27.000Z,20.50
2022-09-21T08:01:27.000Z,18.40
2022-09-21T08:11:27.000Z,16.00
2022-09-21T08:21:26.000Z,22.80
2022-09-21T08:31:26.000Z,27.10
2022-09-21T08:41:25.000Z,23.00
2022-09-21T08:51:25.000Z,32.90
2022-09-21T09:01:24.000Z,18.10
2022-09-21T09:21:23.000Z,12.90
2022-09-21T09:31:22.000Z,11.20
2022-09-21T09:41:21.000Z,11.30
2022-09-21T09:51:21.000Z,10.30
2022-09-21T10:01:20.000Z,9.00
2022-09-21T10:11:19.000Z,21.00
2022-09-21T10:21:18.000Z,5.90
2022-09-21T10:31:17.000Z,10.00
2022-09-21T10:51:16.000Z,8.40
2022-09-21T11:01:15.000Z,4.40
2022-09-21T11:11:14.000Z,4.60
2022-09-21T11:21:13.000Z,5.00
2022-09-21T11:31:12.000Z,3.90
2022-09-21T11:41:11.000Z,3.30
2022-09-21T11:51:11.000Z,3.30
2022-09-21T12:01:10.000Z,3.30
2022-09-21T12:21:08.000Z,3.40
2022-09-21T12:31:07.000Z,3.00
2022-09-21T12:41:06.000Z,4.00
2022-09-21T12:51:05.000Z,2.80
2022-09-21T13:01:03.000Z,3.00
2022-09-21T13:11:02.000Z,3.60
2022-09-21T13:21:01.000Z,3.40
2022-09-21T13:21:01.000Z,3.40
2022-09-21T13:31:00.000Z,4.30
2022-09-21T13:50:58.000Z,4.60
2022-09-21T14:00:57.000Z,3.10
2022-09-21T14:10:56.000Z,3.30
2022-09-21T14:20:55.000Z,3.00
2022-09-21T14:30:54.000Z,3.00
2022-09-21T14:40:53.000Z,2.90
2022-09-21T14:50:52.000Z,3.10
2022-09-21T15:00:51.000Z,4.80
2022-09-21T15:20:49.000Z,2.90
2022-09-21T15:30:48.000Z,3.40
2022-09-21T15:40:47.000Z,10.40
2022-09-21T15:50:46.000Z,3.30
2022-09-21T16:00:45.000Z,2.40
2022-09-21T16:10:44.000Z,2.80
2022-09-21T16:20:43.000Z,2.50
2022-09-21T16:30:42.000Z,3.30
2022-09-21T16:50:40.000Z,2.80
2022-09-21T17:00:38.000Z,2.90
2022-09-21T17:10:37.000Z,2.90
2022-09-21T17:20:36.000Z,3.10
2022-09-21T17:30:36.000Z,3.40
2022-09-21T17:40:35.000Z,2.70
2022-09-21T17:50:34.000Z,4.00
2022-09-21T18:00:33.000Z,3.70
2022-09-21T18:20:32.000Z,3.90
2022-09-21T18:30:31.000Z,11.50
2022-09-21T18:40:30.000Z,4.40
2022-09-21T18:50:30.000Z,4.20
2022-09-21T19:00:29.000Z,4.50
2022-09-21T19:10:28.000Z,4.30
2022-09-21T19:20:28.000Z,5.00
2022-09-21T19:30:27.000Z,4.80
2022-09-21T19:30:27.000Z,4.80
2022-09-21T19:50:26.000Z,5.40
2022-09-21T20:00:25.000Z,5.10
2022-09-21T20:10:25.000Z,4.50
2022-09-21T20:20:25.000Z,4.90
2022-09-21T20:30:24.000Z,4.10
2022-09-21T20:40:24.000Z,5.00
2022-09-21T20:50:23.000Z,5.40
2022-09-21T21:00:23.000Z,5.10
2022-09-21T21:20:22.000Z,5.50
2022-09-21T21:30:22.000Z,15.60
2022-09-21T21:40:22.000Z,33.70
2022-09-21T21:50:21.000Z,43.70
2022-09-21T22:00:21.000Z,21.70
2022-09-21T22:10:20.000Z,14.30
2022-09-21T22:20:20.000Z,13.80
2022-09-21T22:30:20.000Z,12.40
2022-09-21T22:50:19.000Z,14.50
2022-09-21T23:00:19.000Z,17.60
2022-09-21T23:10:19.000Z,21.60
2022-09-21T23:20:18.000Z,24.50
2022-09-21T23:30:18.000Z,13.30
2022-09-21T23:40:18.000Z,20.70
2022-09-21T23:50:18.000Z,21.30
